sensor_id;sensor_type;location;lat;lon;timestamp;temperature;humidity
3067;DHT22;1544;48.834;9.194;2023-05-29T00:01:33;16.20;32.80
3067;DHT22;1544;48.834;9.194;2023-05-29T00:04:09;16.20;33.00
3067;DHT22;1544;48.834;9.194;2023-05-29T00:06:48;16.10;33.00
3067;DHT22;1544;48.834;9.194;2023-05-29T00:09:24;16.10;33.10
3067;DHT22;1544;48.834;9.194;2023-05-29T00:12:00;16.00;33.10
3067;DHT22;1544;48.834;9.194;2023-05-29T00:14:37;16.00;33.00
3067;DHT22;1544;48.834;9.194;2023-05-29T00:17:13;16.00;32.90
3067;DHT22;1544;48.834;9.194;2023-05-29T00:19:51;15.90;32.90
3067;DHT22;1544;48.834;9.194;2023-05-29T00:22:27;15.90;32.90
3067;DHT22;1544;48.834;9.194;2023-05-29T00:25:04;15.80;33.20
3067;DHT22;1544;48.834;9.194;2023-05-29T00:27:41;15.80;33.30
3067;DHT22;1544;48.834;9.194;2023-05-29T00:30:17;15.70;33.30
3067;DHT22;1544;48.834;9.194;2023-05-29T00:32:53;15.70;33.40
3067;DHT22;1544;48.834;9.194;2023-05-29T00:35:30;15.60;33.30
3067;DHT22;1544;48.834;9.194;2023-05-29T00:38:05;15.60;33.30
3067;DHT22;1544;48.834;9.194;2023-05-29T00:40:41;15.70;33.40
3067;DHT22;1544;48.834;9.194;2023-05-29T00:43:17;15.60;33.40
3067;DHT22;1544;48.834;9.194;2023-05-29T00:45:54;15.60;33.50
3067;DHT22;1544;48.834;9.194;2023-05-29T00:48:30;15.60;33.50
3067;DHT22;1544;48.834;9.194;2023-05-29T00:51:06;15.50;33.50
3067;DHT22;1544;48.834;9.194;2023-05-29T00:53:43;15.50;33.60
3067;DHT22;1544;48.834;9.194;2023-05-29T00:56:21;15.50;33.60
3067;DHT22;1544;48.834;9.194;2023-05-29T00:58:57;15.50;33.70
3067;DHT22;1544;48.834;9.194;2023-05-29T01:01:33;15.40;33.70
3067;DHT22;1544;48.834;9.194;2023-05-29T01:04:11;15.40;33.80
3067;DHT22;1544;48.834;9.194;2023-05-29T01:06:49;15.40;33.80
3067;DHT22;1544;48.834;9.194;2023-05-29T01:09:25;15.30;33.80
3067;DHT22;1544;48.834;9.194;2023-05-29T01:12:31;15.20;33.70
3067;DHT22;1544;48.834;9.194;2023-05-29T01:18:34;15.20;34.00
3067;DHT22;1544;48.834;9.194;2023-05-29T01:27:05;15.10;34.10
3067;DHT22;1544;48.834;9.194;2023-05-29T01:29:43;15.10;34.20
3067;DHT22;1544;48.834;9.194;2023-05-29T01:32:20;15.00;34.20
3067;DHT22;1544;48.834;9.194;2023-05-29T01:34:57;15.00;34.30
3067;DHT22;1544;48.834;9.194;2023-05-29T01:37:33;15.00;34.30
3067;DHT22;1544;48.834;9.194;2023-05-29T01:40:09;14.90;34.30
3067;DHT22;1544;48.834;9.194;2023-05-29T01:42:45;14.90;34.30
3067;DHT22;1544;48.834;9.194;2023-05-29T01:45:22;14.90;34.40
3067;DHT22;1544;48.834;9.194;2023-05-29T01:47:58;14.80;34.40
3067;DHT22;1544;48.834;9.194;2023-05-29T01:50:35;14.80;34.40
3067;DHT22;1544;48.834;9.194;2023-05-29T01:53:11;14.70;34.40
3067;DHT22;1544;48.834;9.194;2023-05-29T01:55:47;14.70;34.50
3067;DHT22;1544;48.834;9.194;2023-05-29T01:58:23;14.60;34.70
3067;DHT22;1544;48.834;9.194;2023-05-29T02:01:05;14.60;34.80
3067;DHT22;1544;48.834;9.194;2023-05-29T02:03:42;14.60;34.80
3067;DHT22;1544;48.834;9.194;2023-05-29T02:06:19;14.50;34.80
3067;DHT22;1544;48.834;9.194;2023-05-29T02:08:55;14.50;35.00
3067;DHT22;1544;48.834;9.194;2023-05-29T02:11:31;14.50;35.10
3067;DHT22;1544;48.834;9.194;2023-05-29T02:14:07;14.50;35.20
3067;DHT22;1544;48.834;9.194;2023-05-29T02:16:44;14.40;35.20
3067;DHT22;1544;48.834;9.194;2023-05-29T02:19:20;14.40;35.30
3067;DHT22;1544;48.834;9.194;2023-05-29T02:21:58;14.40;35.40
3067;DHT22;1544;48.834;9.194;2023-05-29T02:24:33;14.30;35.30
3067;DHT22;1544;48.834;9.194;2023-05-29T02:27:09;14.30;35.50
3067;DHT22;1544;48.834;9.194;2023-05-29T02:29:46;14.30;35.40
3067;DHT22;1544;48.834;9.194;2023-05-29T02:32:22;14.30;35.40
3067;DHT22;1544;48.834;9.194;2023-05-29T02:34:58;14.30;36.00
3067;DHT22;1544;48.834;9.194;2023-05-29T02:37:34;14.30;35.60
3067;DHT22;1544;48.834;9.194;2023-05-29T02:40:10;14.20;35.60
3067;DHT22;1544;48.834;9.194;2023-05-29T02:42:46;14.20;35.70
3067;DHT22;1544;48.834;9.194;2023-05-29T02:45:23;14.10;35.80
3067;DHT22;1544;48.834;9.194;2023-05-29T02:47:58;14.00;36.10
3067;DHT22;1544;48.834;9.194;2023-05-29T02:50:35;13.90;36.20
3067;DHT22;1544;48.834;9.194;2023-05-29T02:53:11;13.90;36.20
3067;DHT22;1544;48.834;9.194;2023-05-29T02:55:48;13.90;36.20
3067;DHT22;1544;48.834;9.194;2023-05-29T02:58:24;13.90;36.20
3067;DHT22;1544;48.834;9.194;2023-05-29T03:01:00;13.90;36.20
3067;DHT22;1544;48.834;9.194;2023-05-29T03:03:38;13.90;36.30
3067;DHT22;1544;48.834;9.194;2023-05-29T03:06:14;13.80;36.30
3067;DHT22;1544;48.834;9.194;2023-05-29T03:08:51;13.80;36.30
3067;DHT22;1544;48.834;9.194;2023-05-29T03:11:27;13.80;36.40
3067;DHT22;1544;48.834;9.194;2023-05-29T03:14:04;13.70;36.40
3067;DHT22;1544;48.834;9.194;2023-05-29T03:16:40;13.70;36.50
3067;DHT22;1544;48.834;9.194;2023-05-29T03:19:16;13.70;36.70
3067;DHT22;1544;48.834;9.194;2023-05-29T03:21:52;13.60;36.70
3067;DHT22;1544;48.834;9.194;2023-05-29T03:24:28;13.60;36.80
3067;DHT22;1544;48.834;9.194;2023-05-29T03:27:04;13.60;37.00
3067;DHT22;1544;48.834;9.194;2023-05-29T03:29:41;13.50;37.10
3067;DHT22;1544;48.834;9.194;2023-05-29T03:32:17;13.50;37.20
3067;DHT22;1544;48.834;9.194;2023-05-29T03:34:53;13.50;37.30
3067;DHT22;1544;48.834;9.194;2023-05-29T03:37:30;13.50;37.50
3067;DHT22;1544;48.834;9.194;2023-05-29T03:40:06;13.40;37.40
3067;DHT22;1544;48.834;9.194;2023-05-29T03:42:43;13.40;37.50
3067;DHT22;1544;48.834;9.194;2023-05-29T03:45:21;13.30;37.60
3067;DHT22;1544;48.834;9.194;2023-05-29T03:47:57;13.30;37.70
3067;DHT22;1544;48.834;9.194;2023-05-29T03:50:34;13.30;37.90
3067;DHT22;1544;48.834;9.194;2023-05-29T03:53:10;13.30;37.90
3067;DHT22;1544;48.834;9.194;2023-05-29T03:55:45;13.30;37.90
3067;DHT22;1544;48.834;9.194;2023-05-29T03:58:22;13.30;37.90
3067;DHT22;1544;48.834;9.194;2023-05-29T04:00:58;13.30;38.00
3067;DHT22;1544;48.834;9.194;2023-05-29T04:03:36;13.30;38.10
3067;DHT22;1544;48.834;9.194;2023-05-29T04:06:13;13.30;38.10
3067;DHT22;1544;48.834;9.194;2023-05-29T04:08:49;13.30;38.40
3067;DHT22;1544;48.834;9.194;2023-05-29T04:11:25;13.30;38.30
3067;DHT22;1544;48.834;9.194;2023-05-29T04:14:02;13.30;38.50
3067;DHT22;1544;48.834;9.194;2023-05-29T04:16:38;13.30;38.40
3067;DHT22;1544;48.834;9.194;2023-05-29T04:19:15;13.30;38.40
3067;DHT22;1544;48.834;9.194;2023-05-29T04:21:51;13.30;38.50
3067;DHT22;1544;48.834;9.194;2023-05-29T04:24:27;13.40;38.70
3067;DHT22;1544;48.834;9.194;2023-05-29T04:27:03;13.40;38.60
3067;DHT22;1544;48.834;9.194;2023-05-29T04:29:41;13.40;38.70
3067;DHT22;1544;48.834;9.194;2023-05-29T04:32:17;13.40;38.70
3067;DHT22;1544;48.834;9.194;2023-05-29T04:34:54;13.50;38.80
3067;DHT22;1544;48.834;9.194;2023-05-29T04:37:30;13.50;38.80
3067;DHT22;1544;48.834;9.194;2023-05-29T04:40:08;13.50;38.70
3067;DHT22;1544;48.834;9.194;2023-05-29T04:42:44;13.60;38.80
3067;DHT22;1544;48.834;9.194;2023-05-29T04:45:22;13.60;38.60
3067;DHT22;1544;48.834;9.194;2023-05-29T04:47:59;13.70;38.60
3067;DHT22;1544;48.834;9.194;2023-05-29T04:50:36;13.70;38.50
3067;DHT22;1544;48.834;9.194;2023-05-29T04:53:14;13.70;38.30
3067;DHT22;1544;48.834;9.194;2023-05-29T04:55:50;13.80;38.40
3067;DHT22;1544;48.834;9.194;2023-05-29T04:58:26;13.80;38.30
3067;DHT22;1544;48.834;9.194;2023-05-29T05:01:03;13.90;38.30
3067;DHT22;1544;48.834;9.194;2023-05-29T05:03:41;13.90;38.20
3067;DHT22;1544;48.834;9.194;2023-05-29T05:06:17;14.00;38.20
3067;DHT22;1544;48.834;9.194;2023-05-29T05:08:54;14.00;38.00
3067;DHT22;1544;48.834;9.194;2023-05-29T05:11:30;14.10;37.90
3067;DHT22;1544;48.834;9.194;2023-05-29T05:14:07;14.20;38.00
3067;DHT22;1544;48.834;9.194;2023-05-29T05:16:44;14.20;37.80
3067;DHT22;1544;48.834;9.194;2023-05-29T05:19:20;14.20;37.60
3067;DHT22;1544;48.834;9.194;2023-05-29T05:21:56;14.30;37.60
3067;DHT22;1544;48.834;9.194;2023-05-29T05:24:35;14.30;37.40
3067;DHT22;1544;48.834;9.194;2023-05-29T05:27:11;14.40;37.20
3067;DHT22;1544;48.834;9.194;2023-05-29T05:29:47;14.50;37.10
3067;DHT22;1544;48.834;9.194;2023-05-29T05:32:23;14.60;37.00
3067;DHT22;1544;48.834;9.194;2023-05-29T05:35:06;14.70;36.80
3067;DHT22;1544;48.834;9.194;2023-05-29T05:37:45;14.70;36.60
3067;DHT22;1544;48.834;9.194;2023-05-29T05:40:21;14.70;36.50
3067;DHT22;1544;48.834;9.194;2023-05-29T05:43:03;14.80;36.40
3067;DHT22;1544;48.834;9.194;2023-05-29T05:46:02;14.90;36.20
3067;DHT22;1544;48.834;9.194;2023-05-29T05:48:42;14.90;36.10
3067;DHT22;1544;48.834;9.194;2023-05-29T05:51:19;15.00;36.00
3067;DHT22;1544;48.834;9.194;2023-05-29T05:53:55;15.10;35.90
3067;DHT22;1544;48.834;9.194;2023-05-29T05:56:31;15.10;35.80
3067;DHT22;1544;48.834;9.194;2023-05-29T05:59:07;15.20;36.00
3067;DHT22;1544;48.834;9.194;2023-05-29T06:01:43;15.20;36.20
3067;DHT22;1544;48.834;9.194;2023-05-29T06:04:19;15.30;36.50
3067;DHT22;1544;48.834;9.194;2023-05-29T06:06:56;15.40;36.40
3067;DHT22;1544;48.834;9.194;2023-05-29T06:09:32;15.50;36.40
3067;DHT22;1544;48.834;9.194;2023-05-29T06:12:09;15.60;36.50
3067;DHT22;1544;48.834;9.194;2023-05-29T06:14:52;15.70;36.60
3067;DHT22;1544;48.834;9.194;2023-05-29T06:17:28;15.80;36.70
3067;DHT22;1544;48.834;9.194;2023-05-29T06:20:05;15.80;36.60
3067;DHT22;1544;48.834;9.194;2023-05-29T06:22:47;15.90;36.60
3067;DHT22;1544;48.834;9.194;2023-05-29T06:25:26;16.00;36.50
3067;DHT22;1544;48.834;9.194;2023-05-29T06:28:08;16.10;36.40
3067;DHT22;1544;48.834;9.194;2023-05-29T06:30:44;15.90;36.20
3067;DHT22;1544;48.834;9.194;2023-05-29T06:33:21;16.20;36.20
3067;DHT22;1544;48.834;9.194;2023-05-29T06:35:57;16.20;35.90
3067;DHT22;1544;48.834;9.194;2023-05-29T06:38:37;16.30;35.90
3067;DHT22;1544;48.834;9.194;2023-05-29T06:41:16;16.40;35.80
3067;DHT22;1544;48.834;9.194;2023-05-29T06:43:53;16.60;35.80
3067;DHT22;1544;48.834;9.194;2023-05-29T06:46:30;16.70;35.80
3067;DHT22;1544;48.834;9.194;2023-05-29T06:49:07;16.70;35.80
3067;DHT22;1544;48.834;9.194;2023-05-29T06:51:44;16.80;36.00
3067;DHT22;1544;48.834;9.194;2023-05-29T06:54:37;16.80;35.90
3067;DHT22;1544;48.834;9.194;2023-05-29T06:57:13;17.00;35.60
3067;DHT22;1544;48.834;9.194;2023-05-29T06:59:51;17.00;35.10
3067;DHT22;1544;48.834;9.194;2023-05-29T07:02:28;17.20;34.50
3067;DHT22;1544;48.834;9.194;2023-05-29T07:05:06;17.10;33.80
3067;DHT22;1544;48.834;9.194;2023-05-29T07:07:44;17.20;33.90
3067;DHT22;1544;48.834;9.194;2023-05-29T07:10:21;17.40;33.90
3067;DHT22;1544;48.834;9.194;2023-05-29T07:12:58;17.40;33.10
3067;DHT22;1544;48.834;9.194;2023-05-29T07:15:34;17.50;33.00
3067;DHT22;1544;48.834;9.194;2023-05-29T07:18:10;17.60;33.10
3067;DHT22;1544;48.834;9.194;2023-05-29T07:20:47;17.70;33.00
3067;DHT22;1544;48.834;9.194;2023-05-29T07:23:26;17.80;33.00
3067;DHT22;1544;48.834;9.194;2023-05-29T07:26:04;17.80;32.70
3067;DHT22;1544;48.834;9.194;2023-05-29T07:28:39;17.90;32.40
3067;DHT22;1544;48.834;9.194;2023-05-29T07:31:16;18.00;32.60
3067;DHT22;1544;48.834;9.194;2023-05-29T07:33:54;18.00;32.70
3067;DHT22;1544;48.834;9.194;2023-05-29T07:36:31;18.10;32.70
3067;DHT22;1544;48.834;9.194;2023-05-29T07:39:09;18.20;32.30
3067;DHT22;1544;48.834;9.194;2023-05-29T07:41:46;18.30;32.40
3067;DHT22;1544;48.834;9.194;2023-05-29T07:44:22;18.30;32.20
3067;DHT22;1544;48.834;9.194;2023-05-29T07:46:59;18.40;32.20
3067;DHT22;1544;48.834;9.194;2023-05-29T07:49:46;18.50;32.30
3067;DHT22;1544;48.834;9.194;2023-05-29T07:52:22;18.60;32.30
3067;DHT22;1544;48.834;9.194;2023-05-29T07:54:58;18.70;32.00
3067;DHT22;1544;48.834;9.194;2023-05-29T07:57:35;18.70;31.90
3067;DHT22;1544;48.834;9.194;2023-05-29T08:00:11;18.80;31.90
3067;DHT22;1544;48.834;9.194;2023-05-29T08:02:54;18.90;32.00
3067;DHT22;1544;48.834;9.194;2023-05-29T08:05:39;19.00;32.10
3067;DHT22;1544;48.834;9.194;2023-05-29T08:08:20;19.10;32.00
3067;DHT22;1544;48.834;9.194;2023-05-29T08:10:56;19.20;32.10
3067;DHT22;1544;48.834;9.194;2023-05-29T08:13:33;19.30;32.10
3067;DHT22;1544;48.834;9.194;2023-05-29T08:16:12;19.40;32.10
3067;DHT22;1544;48.834;9.194;2023-05-29T08:18:50;19.40;32.20
3067;DHT22;1544;48.834;9.194;2023-05-29T08:21:26;19.50;32.10
3067;DHT22;1544;48.834;9.194;2023-05-29T08:24:03;19.60;32.10
3067;DHT22;1544;48.834;9.194;2023-05-29T08:26:42;19.70;32.20
3067;DHT22;1544;48.834;9.194;2023-05-29T08:29:19;19.80;32.10
3067;DHT22;1544;48.834;9.194;2023-05-29T08:31:55;19.90;32.00
3067;DHT22;1544;48.834;9.194;2023-05-29T08:34:31;20.00;31.50
3067;DHT22;1544;48.834;9.194;2023-05-29T08:37:07;20.00;31.50
3067;DHT22;1544;48.834;9.194;2023-05-29T08:39:43;20.20;31.70
3067;DHT22;1544;48.834;9.194;2023-05-29T08:42:23;20.20;31.60
3067;DHT22;1544;48.834;9.194;2023-05-29T08:45:03;20.40;31.70
3067;DHT22;1544;48.834;9.194;2023-05-29T08:47:40;20.40;31.60
3067;DHT22;1544;48.834;9.194;2023-05-29T08:50:21;20.50;31.80
3067;DHT22;1544;48.834;9.194;2023-05-29T08:52:57;20.60;32.00
3067;DHT22;1544;48.834;9.194;2023-05-29T08:55:33;20.70;32.00
3067;DHT22;1544;48.834;9.194;2023-05-29T08:58:11;20.80;31.90
3067;DHT22;1544;48.834;9.194;2023-05-29T09:00:50;20.90;31.70
3067;DHT22;1544;48.834;9.194;2023-05-29T09:03:27;21.00;31.80
3067;DHT22;1544;48.834;9.194;2023-05-29T09:06:03;21.10;31.80
3067;DHT22;1544;48.834;9.194;2023-05-29T09:08:39;21.20;31.70
3067;DHT22;1544;48.834;9.194;2023-05-29T09:11:15;21.40;31.80
3067;DHT22;1544;48.834;9.194;2023-05-29T09:13:52;21.50;31.80
3067;DHT22;1544;48.834;9.194;2023-05-29T09:16:28;21.60;31.80
3067;DHT22;1544;48.834;9.194;2023-05-29T09:19:05;21.70;31.40
3067;DHT22;1544;48.834;9.194;2023-05-29T09:21:48;21.90;31.30
3067;DHT22;1544;48.834;9.194;2023-05-29T09:24:24;22.00;31.20
3067;DHT22;1544;48.834;9.194;2023-05-29T09:27:01;22.20;31.00
3067;DHT22;1544;48.834;9.194;2023-05-29T09:29:41;22.30;30.60
3067;DHT22;1544;48.834;9.194;2023-05-29T09:32:18;22.40;30.20
3067;DHT22;1544;48.834;9.194;2023-05-29T09:34:59;22.60;30.30
3067;DHT22;1544;48.834;9.194;2023-05-29T09:37:41;22.70;30.40
3067;DHT22;1544;48.834;9.194;2023-05-29T09:40:17;22.90;30.20
3067;DHT22;1544;48.834;9.194;2023-05-29T09:42:53;23.00;30.00
3067;DHT22;1544;48.834;9.194;2023-05-29T09:45:30;23.10;30.00
3067;DHT22;1544;48.834;9.194;2023-05-29T09:48:07;23.20;29.60
3067;DHT22;1544;48.834;9.194;2023-05-29T09:50:45;23.30;29.70
3067;DHT22;1544;48.834;9.194;2023-05-29T09:53:25;23.40;29.60
3067;DHT22;1544;48.834;9.194;2023-05-29T09:56:02;23.50;29.10
3067;DHT22;1544;48.834;9.194;2023-05-29T09:58:40;23.60;29.00
3067;DHT22;1544;48.834;9.194;2023-05-29T10:01:21;23.70;28.70
3067;DHT22;1544;48.834;9.194;2023-05-29T10:03:58;23.80;28.50
3067;DHT22;1544;48.834;9.194;2023-05-29T10:06:36;23.90;28.20
3067;DHT22;1544;48.834;9.194;2023-05-29T10:09:22;24.00;28.00
3067;DHT22;1544;48.834;9.194;2023-05-29T10:12:03;24.20;27.80
3067;DHT22;1544;48.834;9.194;2023-05-29T10:14:44;24.30;27.90
3067;DHT22;1544;48.834;9.194;2023-05-29T10:17:23;24.40;28.00
3067;DHT22;1544;48.834;9.194;2023-05-29T10:20:05;24.50;27.70
3067;DHT22;1544;48.834;9.194;2023-05-29T10:22:47;24.60;27.70
3067;DHT22;1544;48.834;9.194;2023-05-29T10:25:27;24.70;27.70
3067;DHT22;1544;48.834;9.194;2023-05-29T10:28:06;24.80;27.30
3067;DHT22;1544;48.834;9.194;2023-05-29T10:30:47;24.90;27.60
3067;DHT22;1544;48.834;9.194;2023-05-29T10:33:33;25.00;27.40
3067;DHT22;1544;48.834;9.194;2023-05-29T10:36:20;25.10;27.20
3067;DHT22;1544;48.834;9.194;2023-05-29T10:38:59;25.20;27.00
3067;DHT22;1544;48.834;9.194;2023-05-29T10:41:36;25.30;27.10
3067;DHT22;1544;48.834;9.194;2023-05-29T10:47:09;25.40;27.10
3067;DHT22;1544;48.834;9.194;2023-05-29T10:49:51;25.60;27.20
3067;DHT22;1544;48.834;9.194;2023-05-29T10:52:31;25.60;27.00
3067;DHT22;1544;48.834;9.194;2023-05-29T10:55:11;25.70;27.00
3067;DHT22;1544;48.834;9.194;2023-05-29T10:57:47;25.80;26.90
3067;DHT22;1544;48.834;9.194;2023-05-29T11:00:24;25.80;26.60
3067;DHT22;1544;48.834;9.194;2023-05-29T11:03:07;25.90;26.50
3067;DHT22;1544;48.834;9.194;2023-05-29T11:06:01;26.00;26.50
3067;DHT22;1544;48.834;9.194;2023-05-29T11:14:06;26.30;26.10
3067;DHT22;1544;48.834;9.194;2023-05-29T11:16:42;26.40;26.20
3067;DHT22;1544;48.834;9.194;2023-05-29T11:19:18;26.50;25.60
3067;DHT22;1544;48.834;9.194;2023-05-29T11:22:08;26.60;25.60
3067;DHT22;1544;48.834;9.194;2023-05-29T11:24:45;26.60;25.30
3067;DHT22;1544;48.834;9.194;2023-05-29T11:27:23;26.70;25.30
3067;DHT22;1544;48.834;9.194;2023-05-29T11:29:59;26.80;25.40
3067;DHT22;1544;48.834;9.194;2023-05-29T11:32:36;26.90;25.20
3067;DHT22;1544;48.834;9.194;2023-05-29T11:35:14;26.90;25.20
3067;DHT22;1544;48.834;9.194;2023-05-29T11:37:50;26.90;25.30
3067;DHT22;1544;48.834;9.194;2023-05-29T11:40:26;27.10;25.50
3067;DHT22;1544;48.834;9.194;2023-05-29T11:43:03;27.20;25.50
3067;DHT22;1544;48.834;9.194;2023-05-29T11:45:38;27.30;25.10
3067;DHT22;1544;48.834;9.194;2023-05-29T11:48:15;27.40;25.10
3067;DHT22;1544;48.834;9.194;2023-05-29T11:50:51;27.50;24.80
3067;DHT22;1544;48.834;9.194;2023-05-29T11:53:27;27.70;24.70
3067;DHT22;1544;48.834;9.194;2023-05-29T11:56:10;27.80;24.40
3067;DHT22;1544;48.834;9.194;2023-05-29T11:58:46;27.90;24.40
3067;DHT22;1544;48.834;9.194;2023-05-29T12:01:24;28.00;24.20
3067;DHT22;1544;48.834;9.194;2023-05-29T12:04:00;28.00;23.90
3067;DHT22;1544;48.834;9.194;2023-05-29T12:06:38;28.10;24.00
3067;DHT22;1544;48.834;9.194;2023-05-29T12:09:27;28.20;24.30
3067;DHT22;1544;48.834;9.194;2023-05-29T12:12:04;28.30;24.00
3067;DHT22;1544;48.834;9.194;2023-05-29T12:14:41;28.40;23.60
3067;DHT22;1544;48.834;9.194;2023-05-29T12:17:17;28.60;23.60
3067;DHT22;1544;48.834;9.194;2023-05-29T12:19:54;28.70;23.80
3067;DHT22;1544;48.834;9.194;2023-05-29T12:22:36;28.90;23.20
3067;DHT22;1544;48.834;9.194;2023-05-29T12:25:17;29.00;23.20
3067;DHT22;1544;48.834;9.194;2023-05-29T12:27:57;29.20;23.20
3067;DHT22;1544;48.834;9.194;2023-05-29T12:30:37;29.30;23.10
3067;DHT22;1544;48.834;9.194;2023-05-29T12:33:31;29.50;22.80
3067;DHT22;1544;48.834;9.194;2023-05-29T12:36:09;29.70;22.90
3067;DHT22;1544;48.834;9.194;2023-05-29T12:38:50;29.90;22.90
3067;DHT22;1544;48.834;9.194;2023-05-29T12:41:33;30.10;22.80
3067;DHT22;1544;48.834;9.194;2023-05-29T12:44:10;30.40;23.00
3067;DHT22;1544;48.834;9.194;2023-05-29T12:46:46;30.50;22.40
3067;DHT22;1544;48.834;9.194;2023-05-29T12:49:22;30.60;22.70
3067;DHT22;1544;48.834;9.194;2023-05-29T12:52:05;30.90;22.60
3067;DHT22;1544;48.834;9.194;2023-05-29T12:54:47;31.10;22.50
3067;DHT22;1544;48.834;9.194;2023-05-29T12:57:23;31.40;22.60
3067;DHT22;1544;48.834;9.194;2023-05-29T12:59:59;31.50;22.10
3067;DHT22;1544;48.834;9.194;2023-05-29T13:02:36;31.80;22.50
3067;DHT22;1544;48.834;9.194;2023-05-29T13:05:12;32.00;22.30
3067;DHT22;1544;48.834;9.194;2023-05-29T13:07:49;32.10;22.30
3067;DHT22;1544;48.834;9.194;2023-05-29T13:10:26;32.40;22.00
3067;DHT22;1544;48.834;9.194;2023-05-29T13:13:03;32.40;21.40
3067;DHT22;1544;48.834;9.194;2023-05-29T13:15:39;32.70;21.70
3067;DHT22;1544;48.834;9.194;2023-05-29T13:18:16;32.90;21.70
3067;DHT22;1544;48.834;9.194;2023-05-29T13:20:52;33.00;21.70
3067;DHT22;1544;48.834;9.194;2023-05-29T13:23:28;33.10;21.70
3067;DHT22;1544;48.834;9.194;2023-05-29T13:26:04;33.40;22.10
3067;DHT22;1544;48.834;9.194;2023-05-29T13:28:41;33.50;21.60
3067;DHT22;1544;48.834;9.194;2023-05-29T13:31:17;33.60;21.20
3067;DHT22;1544;48.834;9.194;2023-05-29T13:33:53;33.70;21.30
3067;DHT22;1544;48.834;9.194;2023-05-29T13:36:29;33.90;21.10
3067;DHT22;1544;48.834;9.194;2023-05-29T13:39:05;34.00;21.30
3067;DHT22;1544;48.834;9.194;2023-05-29T13:41:42;34.20;21.30
3067;DHT22;1544;48.834;9.194;2023-05-29T13:44:18;34.40;21.30
3067;DHT22;1544;48.834;9.194;2023-05-29T13:46:54;34.60;21.30
3067;DHT22;1544;48.834;9.194;2023-05-29T13:49:30;34.70;21.00
3067;DHT22;1544;48.834;9.194;2023-05-29T13:52:06;34.70;20.70
3067;DHT22;1544;48.834;9.194;2023-05-29T13:54:42;34.70;20.60
3067;DHT22;1544;48.834;9.194;2023-05-29T13:57:18;34.90;20.80
3067;DHT22;1544;48.834;9.194;2023-05-29T13:59:55;35.00;21.00
3067;DHT22;1544;48.834;9.194;2023-05-29T14:02:31;35.20;21.10
3067;DHT22;1544;48.834;9.194;2023-05-29T14:05:07;35.20;21.10
3067;DHT22;1544;48.834;9.194;2023-05-29T14:07:43;35.40;20.80
3067;DHT22;1544;48.834;9.194;2023-05-29T14:10:19;35.50;20.50
3067;DHT22;1544;48.834;9.194;2023-05-29T14:12:55;35.70;20.70
3067;DHT22;1544;48.834;9.194;2023-05-29T14:15:32;35.80;20.80
3067;DHT22;1544;48.834;9.194;2023-05-29T14:18:08;35.90;20.80
3067;DHT22;1544;48.834;9.194;2023-05-29T14:20:45;36.00;21.00
3067;DHT22;1544;48.834;9.194;2023-05-29T14:23:24;36.10;21.00
3067;DHT22;1544;48.834;9.194;2023-05-29T14:26:01;36.20;20.90
3067;DHT22;1544;48.834;9.194;2023-05-29T14:28:37;36.30;20.70
3067;DHT22;1544;48.834;9.194;2023-05-29T14:31:13;36.30;20.70
3067;DHT22;1544;48.834;9.194;2023-05-29T14:33:49;36.40;20.70
3067;DHT22;1544;48.834;9.194;2023-05-29T14:36:25;36.60;20.70
3067;DHT22;1544;48.834;9.194;2023-05-29T14:39:02;36.80;20.70
3067;DHT22;1544;48.834;9.194;2023-05-29T14:41:39;37.00;20.80
3067;DHT22;1544;48.834;9.194;2023-05-29T14:44:15;37.00;20.50
3067;DHT22;1544;48.834;9.194;2023-05-29T14:46:51;37.10;20.60
3067;DHT22;1544;48.834;9.194;2023-05-29T14:49:27;37.10;20.70
3067;DHT22;1544;48.834;9.194;2023-05-29T14:52:07;37.30;20.70
3067;DHT22;1544;48.834;9.194;2023-05-29T14:54:43;37.40;20.60
3067;DHT22;1544;48.834;9.194;2023-05-29T14:57:19;37.50;20.90
3067;DHT22;1544;48.834;9.194;2023-05-29T14:59:55;37.60;20.70
3067;DHT22;1544;48.834;9.194;2023-05-29T15:02:32;37.60;20.40
3067;DHT22;1544;48.834;9.194;2023-05-29T15:05:08;37.80;20.70
3067;DHT22;1544;48.834;9.194;2023-05-29T15:07:44;37.80;20.60
3067;DHT22;1544;48.834;9.194;2023-05-29T15:10:20;37.90;20.80
3067;DHT22;1544;48.834;9.194;2023-05-29T15:12:57;38.00;20.70
3067;DHT22;1544;48.834;9.194;2023-05-29T15:15:33;38.00;20.90
3067;DHT22;1544;48.834;9.194;2023-05-29T15:18:22;37.90;20.50
3067;DHT22;1544;48.834;9.194;2023-05-29T15:20:58;38.00;20.40
3067;DHT22;1544;48.834;9.194;2023-05-29T15:23:34;38.10;20.70
3067;DHT22;1544;48.834;9.194;2023-05-29T15:26:11;38.30;20.70
3067;DHT22;1544;48.834;9.194;2023-05-29T15:28:47;38.60;20.80
3067;DHT22;1544;48.834;9.194;2023-05-29T15:31:24;38.70;20.60
3067;DHT22;1544;48.834;9.194;2023-05-29T15:34:01;38.60;20.30
3067;DHT22;1544;48.834;9.194;2023-05-29T15:36:37;38.80;20.30
3067;DHT22;1544;48.834;9.194;2023-05-29T15:39:13;39.30;20.40
3067;DHT22;1544;48.834;9.194;2023-05-29T15:41:50;39.90;20.30
3067;DHT22;1544;48.834;9.194;2023-05-29T15:44:26;40.70;20.30
3067;DHT22;1544;48.834;9.194;2023-05-29T15:47:02;41.70;19.90
3067;DHT22;1544;48.834;9.194;2023-05-29T15:49:38;43.00;19.90
3067;DHT22;1544;48.834;9.194;2023-05-29T15:52:14;44.30;19.80
3067;DHT22;1544;48.834;9.194;2023-05-29T15:54:50;45.60;19.40
3067;DHT22;1544;48.834;9.194;2023-05-29T15:57:27;46.60;19.40
3067;DHT22;1544;48.834;9.194;2023-05-29T16:00:03;47.50;19.50
3067;DHT22;1544;48.834;9.194;2023-05-29T16:02:44;48.20;19.30
3067;DHT22;1544;48.834;9.194;2023-05-29T16:05:21;48.40;19.10
3067;DHT22;1544;48.834;9.194;2023-05-29T16:07:57;48.80;18.90
3067;DHT22;1544;48.834;9.194;2023-05-29T16:10:33;49.20;19.00
3067;DHT22;1544;48.834;9.194;2023-05-29T16:13:09;49.70;19.40
3067;DHT22;1544;48.834;9.194;2023-05-29T16:15:45;50.20;19.10
3067;DHT22;1544;48.834;9.194;2023-05-29T16:18:23;50.80;19.20
3067;DHT22;1544;48.834;9.194;2023-05-29T16:20:59;51.00;19.10
3067;DHT22;1544;48.834;9.194;2023-05-29T16:23:35;51.20;19.00
3067;DHT22;1544;48.834;9.194;2023-05-29T16:26:12;51.00;18.90
3067;DHT22;1544;48.834;9.194;2023-05-29T16:28:48;50.50;18.60
3067;DHT22;1544;48.834;9.194;2023-05-29T16:31:24;49.80;18.70
3067;DHT22;1544;48.834;9.194;2023-05-29T16:34:01;49.00;18.60
3067;DHT22;1544;48.834;9.194;2023-05-29T16:36:37;48.40;18.70
3067;DHT22;1544;48.834;9.194;2023-05-29T16:39:16;47.80;18.90
3067;DHT22;1544;48.834;9.194;2023-05-29T16:41:57;47.00;18.90
3067;DHT22;1544;48.834;9.194;2023-05-29T16:44:33;46.00;18.90
3067;DHT22;1544;48.834;9.194;2023-05-29T16:47:09;45.00;18.90
3067;DHT22;1544;48.834;9.194;2023-05-29T16:49:45;44.10;19.00
3067;DHT22;1544;48.834;9.194;2023-05-29T16:52:21;43.40;19.00
3067;DHT22;1544;48.834;9.194;2023-05-29T16:54:57;42.60;19.10
3067;DHT22;1544;48.834;9.194;2023-05-29T16:57:37;41.80;19.00
3067;DHT22;1544;48.834;9.194;2023-05-29T17:00:17;41.30;19.20
3067;DHT22;1544;48.834;9.194;2023-05-29T17:02:54;40.80;19.30
3067;DHT22;1544;48.834;9.194;2023-05-29T17:05:30;40.40;19.40
3067;DHT22;1544;48.834;9.194;2023-05-29T17:08:10;40.00;19.50
3067;DHT22;1544;48.834;9.194;2023-05-29T17:10:49;39.70;19.50
3067;DHT22;1544;48.834;9.194;2023-05-29T17:13:25;39.30;19.70
3067;DHT22;1544;48.834;9.194;2023-05-29T17:16:02;38.80;19.80
3067;DHT22;1544;48.834;9.194;2023-05-29T17:18:38;38.50;20.00
3067;DHT22;1544;48.834;9.194;2023-05-29T17:21:13;38.00;20.20
3067;DHT22;1544;48.834;9.194;2023-05-29T17:23:49;37.50;20.30
3067;DHT22;1544;48.834;9.194;2023-05-29T17:26:30;37.20;20.40